Terminal Aerodrome Forecast
Issued by NWS

Home | Current Version | Previous Version | Text Only | Print | Product List | Glossary On
Versions: 1 2 3 4 5 6 7 8 9 10 11 12 13 14 15 16 17 18
459
FTUS45 KTFX 251138
TAFGTF
TAF
KGTF 251138Z 2512/2612 21009KT P6SM SCT180
     FM251600 23012KT P6SM SCT090 BKN180
     FM260600 22014KT P6SM BKN090=

USA.gov is the U.S. government's official web portal to all federal, state and local government web resources and services.